Minden, Canada
Current Conditions -  °F | °C
As of 8:00 PM on Wednesday 22 Oct 2014 (Local Time) from CYQA Reporting Station
Clear Clear  
Wind Chill: 45°   Ceiling: Unl
Heat Index: 45°   Visibility: 9mi
Dew Point: 41°   Wind: 3mph
Humidity: 87%   Direction: 20°NNE
Pressure: 30.26"   Gusts: NA
Location:  44.93°N, 78.73°W
Report Text: CYQA 230000Z AUTO 02003KT 340V050 9SM CLR 07/05 A3026 RMK SLP257
Loading
Personal Weather Stations






























Interactive Weather Map
Tropical Storm Tracking
New forecast layout! Learn more

10-Day Weather Forecast

Advertisements
Track Severe Weather on mobile